PWSweather.com
Personal Weather Stations
Station Observations
ZL1DX1M
Mt. Roskill, Auckland, AK 1041

Mt. RoskillAuckland, AK 1041

Lat: -36.9, Lon: 174.74

Elevation: 54

Station Type:

http://www.sanctuaryweather.co.nz

Latest ConditionsUpdated 9:45:17 PM GMT+12 Wednesday, Jul 23, 2014
Currently Today's Max Today's Min Today's Average
Temperature 46.7°F8.2°C 60.0°F15.6°C 36.4°F2.4°C 48.9°F9.4°C
Dew Point 43.0°F6.1°C 48.4°F9.1°C 33.7°F0.9°C 42.1°F5.6°C
Winds Calm Calm 5.3 mph WSW8.5 kmh WSW - 0.9 mph 1.4 kmh
Wind Gusts 1.0 mph1.6 kmh 18.0 mph29.0 kmh - -
Humidity 87% 92% 61% 78%
Pressure 29.83 in1010.2 mb 29.83 in1010.2 mb 29.75 in1007.5 mb -
Hour Temp Dew Point Humidity Winds Wind Gusts Pressure Precip Precip Rate Daily Precip Total
09:45 PM 46.7°F8.2°C 43.0°F6.1°C 87% Calm Calm 1.0 mph1.6 kmh 29.83 in1010.2 mb 0.00 in0.0 mm 0.00 in/hr0.0 mm/hr 0.00 in0.0 mm
09:30 PM 47.4°F8.6°C 44.3°F6.8°C 89% Calm Calm -- 29.83 in1010.2 mb 0.00 in0.0 mm 0.00 in/hr0.0 mm/hr 0.00 in0.0 mm
09:15 PM 46.9°F8.3°C 43.8°F6.6°C 89% Calm Calm -- 29.83 in1010.2 mb 0.00 in0.0 mm 0.00 in/hr0.0 mm/hr 0.00 in0.0 mm
09:00 PM 46.3°F7.9°C 42.7°F5.9°C 87% Calm Calm -- 29.83 in1010.2 mb 0.00 in0.0 mm 0.00 in/hr0.0 mm/hr 0.00 in0.0 mm
08:45 PM 47.9°F8.8°C 44.2°F6.8°C 87% Calm Calm -- 29.82 in1009.8 mb 0.00 in0.0 mm 0.00 in/hr0.0 mm/hr 0.00 in0.0 mm
08:30 PM 47.6°F8.7°C 44.5°F6.9°C 89% Calm Calm -- 29.82 in1009.8 mb 0.00 in0.0 mm 0.00 in/hr0.0 mm/hr 0.00 in0.0 mm
08:15 PM 47.2°F8.4°C 43.8°F6.6°C 88% Calm Calm -- 29.82 in1009.8 mb 0.00 in0.0 mm 0.00 in/hr0.0 mm/hr 0.00 in0.0 mm
08:00 PM 47.7°F8.7°C 43.7°F6.5°C 86% Calm Calm -- 29.82 in1009.8 mb 0.00 in0.0 mm 0.00 in/hr0.0 mm/hr 0.00 in0.0 mm
07:45 PM 49.2°F9.6°C 44.3°F6.8°C 83% Calm Calm -- 29.81 in1009.5 mb 0.00 in0.0 mm 0.00 in/hr0.0 mm/hr 0.00 in0.0 mm
07:30 PM 49.6°F9.8°C 45.0°F7.2°C 84% Calm Calm -- 29.81 in1009.5 mb 0.00 in0.0 mm 0.00 in/hr0.0 mm/hr 0.00 in0.0 mm
07:15 PM 49.6°F9.8°C 44.6°F7.0°C 83% Calm Calm -- 29.81 in1009.5 mb 0.00 in0.0 mm 0.00 in/hr0.0 mm/hr 0.00 in0.0 mm
07:00 PM 50.4°F10.2°C 45.1°F7.3°C 82% Calm Calm -- 29.80 in1009.1 mb 0.00 in0.0 mm 0.00 in/hr0.0 mm/hr 0.00 in0.0 mm
06:45 PM 51.1°F10.6°C 45.5°F7.5°C 81% Calm Calm -- 29.80 in1009.1 mb 0.00 in0.0 mm 0.00 in/hr0.0 mm/hr 0.00 in0.0 mm
06:30 PM 51.5°F10.8°C 45.5°F7.5°C 80% Calm Calm -- 29.80 in1009.1 mb 0.00 in0.0 mm 0.00 in/hr0.0 mm/hr 0.00 in0.0 mm
06:15 PM 52.2°F11.2°C 45.9°F7.7°C 79% Calm Calm -- 29.79 in1008.8 mb 0.00 in0.0 mm 0.00 in/hr0.0 mm/hr 0.00 in0.0 mm
06:00 PM 52.9°F11.6°C 46.6°F8.1°C 79% Calm Calm -- 29.79 in1008.8 mb 0.00 in0.0 mm 0.00 in/hr0.0 mm/hr 0.00 in0.0 mm
05:45 PM 53.3°F11.8°C 46.6°F8.1°C 78% Calm Calm 1.0 mph1.6 kmh 29.78 in1008.5 mb 0.00 in0.0 mm 0.00 in/hr0.0 mm/hr 0.00 in0.0 mm
05:30 PM 53.9°F12.2°C 46.9°F8.3°C 77% Calm Calm 1.0 mph1.6 kmh 29.78 in1008.5 mb 0.00 in0.0 mm 0.00 in/hr0.0 mm/hr 0.00 in0.0 mm
05:15 PM 54.8°F12.7°C 47.0°F8.3°C 75% Calm Calm -- 29.77 in1008.1 mb 0.00 in0.0 mm 0.00 in/hr0.0 mm/hr 0.00 in0.0 mm
05:00 PM 55.8°F13.2°C 47.6°F8.7°C 74% 0.6 mph SE1.0 kmh SE 4.0 mph6.4 kmh 29.77 in1008.1 mb 0.00 in0.0 mm 0.00 in/hr0.0 mm/hr 0.00 in0.0 mm
04:45 PM 57.2°F14.0°C 47.5°F8.6°C 70% 1.4 mph W2.3 kmh W 5.0 mph8.0 kmh 29.77 in1008.1 mb 0.00 in0.0 mm 0.00 in/hr0.0 mm/hr 0.00 in0.0 mm
04:30 PM 58.1°F14.5°C 48.0°F8.9°C 69% 1.5 mph S2.4 kmh S 1.0 mph1.6 kmh 29.76 in1007.8 mb 0.00 in0.0 mm 0.00 in/hr0.0 mm/hr 0.00 in0.0 mm
04:15 PM 58.2°F14.6°C 47.3°F8.5°C 67% 0.7 mph SE1.1 kmh SE 3.0 mph4.8 kmh 29.76 in1007.8 mb 0.00 in0.0 mm 0.00 in/hr0.0 mm/hr 0.00 in0.0 mm
04:00 PM 58.6°F14.8°C 48.0°F8.9°C 68% 2.5 mph S4.0 kmh S 5.0 mph8.0 kmh 29.76 in1007.8 mb 0.00 in0.0 mm 0.00 in/hr0.0 mm/hr 0.00 in0.0 mm
03:45 PM 59.0°F15.0°C 48.0°F8.9°C 67% 2.0 mph SSW3.2 kmh SSW 7.0 mph11.3 kmh 29.75 in1007.5 mb 0.00 in0.0 mm 0.00 in/hr0.0 mm/hr 0.00 in0.0 mm
03:30 PM 59.1°F15.1°C 47.7°F8.7°C 66% 2.6 mph S4.2 kmh S 8.0 mph12.9 kmh 29.75 in1007.5 mb 0.00 in0.0 mm 0.00 in/hr0.0 mm/hr 0.00 in0.0 mm
03:15 PM 59.2°F15.1°C 48.2°F9.0°C 67% 1.6 mph ESE2.6 kmh ESE 6.0 mph9.7 kmh 29.75 in1007.5 mb 0.00 in0.0 mm 0.00 in/hr0.0 mm/hr 0.00 in0.0 mm
03:00 PM 59.4°F15.2°C 48.4°F9.1°C 67% 1.8 mph S2.9 kmh S 6.0 mph9.7 kmh 29.75 in1007.5 mb 0.00 in0.0 mm 0.00 in/hr0.0 mm/hr 0.00 in0.0 mm
02:45 PM 59.2°F15.1°C 47.9°F8.8°C 66% 1.3 mph SSE2.1 kmh SSE 5.0 mph8.0 kmh 29.75 in1007.5 mb 0.00 in0.0 mm 0.00 in/hr0.0 mm/hr 0.00 in0.0 mm
02:30 PM 60.0°F15.6°C 47.8°F8.8°C 64% 1.5 mph ESE2.4 kmh ESE 8.0 mph12.9 kmh 29.75 in1007.5 mb 0.00 in0.0 mm 0.00 in/hr0.0 mm/hr 0.00 in0.0 mm
02:15 PM 59.6°F15.3°C 47.0°F8.3°C 63% 1.3 mph SE2.1 kmh SE 2.0 mph3.2 kmh 29.75 in1007.5 mb 0.00 in0.0 mm 0.00 in/hr0.0 mm/hr 0.00 in0.0 mm
02:00 PM 59.4°F15.2°C 46.4°F8.0°C 62% 4.1 mph WNW6.6 kmh WNW 9.0 mph14.5 kmh 29.75 in1007.5 mb 0.00 in0.0 mm 0.00 in/hr0.0 mm/hr 0.00 in0.0 mm
01:45 PM 59.3°F15.2°C 46.3°F7.9°C 62% 5.3 mph WSW8.5 kmh WSW 18.0 mph29.0 kmh 29.76 in1007.8 mb 0.00 in0.0 mm 0.00 in/hr0.0 mm/hr 0.00 in0.0 mm
01:30 PM 59.5°F15.3°C 46.5°F8.1°C 62% 2.3 mph SW3.7 kmh SW 8.0 mph12.9 kmh 29.76 in1007.8 mb 0.00 in0.0 mm 0.00 in/hr0.0 mm/hr 0.00 in0.0 mm
01:15 PM 58.6°F14.8°C 46.5°F8.1°C 64% 3.5 mph SSW5.6 kmh SSW 9.0 mph14.5 kmh 29.77 in1008.1 mb 0.00 in0.0 mm 0.00 in/hr0.0 mm/hr 0.00 in0.0 mm
01:00 PM 59.0°F15.0°C 46.9°F8.3°C 64% 2.7 mph WNW4.3 kmh WNW 8.0 mph12.9 kmh 29.77 in1008.1 mb 0.00 in0.0 mm 0.00 in/hr0.0 mm/hr 0.00 in0.0 mm
12:45 PM 58.1°F14.5°C 46.4°F8.0°C 65% 2.5 mph SSW4.0 kmh SSW 6.0 mph9.7 kmh 29.78 in1008.5 mb 0.00 in0.0 mm 0.00 in/hr0.0 mm/hr 0.00 in0.0 mm
12:30 PM 58.7°F14.8°C 45.3°F7.4°C 61% 4.3 mph SW6.9 kmh SW 8.0 mph12.9 kmh 29.78 in1008.5 mb 0.00 in0.0 mm 0.00 in/hr0.0 mm/hr 0.00 in0.0 mm
12:15 PM 59.5°F15.3°C 46.5°F8.1°C 62% 2.1 mph WSW3.4 kmh WSW 4.0 mph6.4 kmh 29.79 in1008.8 mb 0.00 in0.0 mm 0.00 in/hr0.0 mm/hr 0.00 in0.0 mm
12:00 PM 58.7°F14.8°C 45.7°F7.6°C 62% 2.4 mph SE3.9 kmh SE 9.0 mph14.5 kmh 29.79 in1008.8 mb 0.00 in0.0 mm 0.00 in/hr0.0 mm/hr 0.00 in0.0 mm
11:45 AM 58.5°F14.7°C 45.5°F7.5°C 62% 1.4 mph S2.3 kmh S 9.0 mph14.5 kmh 29.80 in1009.1 mb 0.00 in0.0 mm 0.00 in/hr0.0 mm/hr 0.00 in0.0 mm
11:30 AM 57.8°F14.3°C 44.9°F7.2°C 62% 3.3 mph SW5.3 kmh SW 6.0 mph9.7 kmh 29.80 in1009.1 mb 0.00 in0.0 mm 0.00 in/hr0.0 mm/hr 0.00 in0.0 mm
11:15 AM 58.0°F14.4°C 45.0°F7.2°C 62% 4.3 mph SW6.9 kmh SW 6.0 mph9.7 kmh 29.80 in1009.1 mb 0.00 in0.0 mm 0.00 in/hr0.0 mm/hr 0.00 in0.0 mm
11:00 AM 57.1°F13.9°C 44.6°F7.0°C 63% 2.6 mph ESE4.2 kmh ESE 10.0 mph16.1 kmh 29.80 in1009.1 mb 0.00 in0.0 mm 0.00 in/hr0.0 mm/hr 0.00 in0.0 mm
10:45 AM 57.3°F14.1°C 44.8°F7.1°C 63% 2.1 mph SE3.4 kmh SE 5.0 mph8.0 kmh 29.80 in1009.1 mb 0.00 in0.0 mm 0.00 in/hr0.0 mm/hr 0.00 in0.0 mm
10:30 AM 56.8°F13.8°C 43.9°F6.6°C 62% 2.5 mph SSW4.0 kmh SSW 5.0 mph8.0 kmh 29.80 in1009.1 mb 0.00 in0.0 mm 0.00 in/hr0.0 mm/hr 0.00 in0.0 mm
10:15 AM 56.2°F13.4°C 45.0°F7.2°C 66% 4.1 mph E6.6 kmh E 11.0 mph17.7 kmh 29.80 in1009.1 mb 0.00 in0.0 mm 0.00 in/hr0.0 mm/hr 0.00 in0.0 mm
10:00 AM 55.7°F13.2°C 45.7°F7.6°C 69% 1.9 mph SE3.1 kmh SE 5.0 mph8.0 kmh 29.80 in1009.1 mb 0.00 in0.0 mm 0.00 in/hr0.0 mm/hr 0.00 in0.0 mm
09:45 AM 55.2°F12.9°C 46.3°F7.9°C 72% 1.6 mph SW2.6 kmh SW 4.0 mph6.4 kmh 29.80 in1009.1 mb 0.00 in0.0 mm 0.00 in/hr0.0 mm/hr 0.00 in0.0 mm
09:30 AM 54.4°F12.4°C 45.9°F7.7°C 73% 0.9 mph SW1.4 kmh SW 3.0 mph4.8 kmh 29.80 in1009.1 mb 0.00 in0.0 mm 0.00 in/hr0.0 mm/hr 0.00 in0.0 mm
09:15 AM 53.5°F11.9°C 45.5°F7.5°C 74% 0.7 mph SSW1.1 kmh SSW 5.0 mph8.0 kmh 29.80 in1009.1 mb 0.00 in0.0 mm 0.00 in/hr0.0 mm/hr 0.00 in0.0 mm
09:00 AM 52.4°F11.3°C 44.7°F7.1°C 75% 0.9 mph SE1.4 kmh SE 2.0 mph3.2 kmh 29.80 in1009.1 mb 0.00 in0.0 mm 0.00 in/hr0.0 mm/hr 0.00 in0.0 mm
08:45 AM 50.3°F10.2°C 44.4°F6.9°C 80% 0.6 mph SSW1.0 kmh SSW 4.0 mph6.4 kmh 29.80 in1009.1 mb 0.00 in0.0 mm 0.00 in/hr0.0 mm/hr 0.00 in0.0 mm
08:30 AM 48.6°F9.2°C 42.7°F5.9°C 80% Calm Calm -- 29.80 in1009.1 mb 0.00 in0.0 mm 0.00 in/hr0.0 mm/hr 0.00 in0.0 mm
08:15 AM 47.7°F8.7°C 41.5°F5.3°C 79% 0.1 mph WSW0.2 kmh WSW -- 29.80 in1009.1 mb 0.00 in0.0 mm 0.00 in/hr0.0 mm/hr 0.00 in0.0 mm
08:00 AM 47.2°F8.4°C 40.7°F4.8°C 78% Calm Calm -- 29.80 in1009.1 mb 0.00 in0.0 mm 0.00 in/hr0.0 mm/hr 0.00 in0.0 mm
07:45 AM 47.8°F8.8°C 41.3°F5.2°C 78% 0.1 mph SW0.2 kmh SW 1.0 mph1.6 kmh 29.80 in1009.1 mb 0.00 in0.0 mm 0.00 in/hr0.0 mm/hr 0.00 in0.0 mm
07:30 AM 46.8°F8.2°C 40.6°F4.8°C 79% 0.3 mph SSW0.5 kmh SSW -- 29.80 in1009.1 mb 0.00 in0.0 mm 0.00 in/hr0.0 mm/hr 0.00 in0.0 mm
07:15 AM 46.3°F7.9°C 40.5°F4.7°C 80% 0.1 mph WSW0.2 kmh WSW 1.0 mph1.6 kmh 29.80 in1009.1 mb 0.00 in0.0 mm 0.00 in/hr0.0 mm/hr 0.00 in0.0 mm
07:00 AM 46.5°F8.1°C 40.7°F4.8°C 80% 1.2 mph SW1.9 kmh SW 2.0 mph3.2 kmh 29.80 in1009.1 mb 0.00 in0.0 mm 0.00 in/hr0.0 mm/hr 0.00 in0.0 mm
06:45 AM 46.3°F7.9°C 40.8°F4.9°C 81% 0.5 mph SW0.8 kmh SW 2.0 mph3.2 kmh 29.80 in1009.1 mb 0.00 in0.0 mm 0.00 in/hr0.0 mm/hr 0.00 in0.0 mm
06:30 AM 42.1°F5.6°C 39.4°F4.1°C 90% 0.4 mph SW0.6 kmh SW 2.0 mph3.2 kmh 29.80 in1009.1 mb 0.00 in0.0 mm 0.00 in/hr0.0 mm/hr 0.00 in0.0 mm
06:15 AM 39.1°F3.9°C 36.7°F2.6°C 91% Calm Calm -- 29.79 in1008.8 mb 0.00 in0.0 mm 0.00 in/hr0.0 mm/hr 0.00 in0.0 mm
06:00 AM 38.2°F3.4°C 36.1°F2.3°C 92% Calm Calm -- 29.79 in1008.8 mb 0.00 in0.0 mm 0.00 in/hr0.0 mm/hr 0.00 in0.0 mm
05:45 AM 37.3°F2.9°C 35.2°F1.8°C 92% Calm Calm -- 29.79 in1008.8 mb 0.00 in0.0 mm 0.00 in/hr0.0 mm/hr 0.00 in0.0 mm
05:30 AM 37.3°F2.9°C 35.2°F1.8°C 92% Calm Calm -- 29.79 in1008.8 mb 0.00 in0.0 mm 0.00 in/hr0.0 mm/hr 0.00 in0.0 mm
05:15 AM 37.1°F2.8°C 34.7°F1.5°C 91% Calm Calm -- 29.79 in1008.8 mb 0.00 in0.0 mm 0.00 in/hr0.0 mm/hr 0.00 in0.0 mm
05:00 AM 37.7°F3.2°C 35.3°F1.8°C 91% Calm Calm -- 29.79 in1008.8 mb 0.00 in0.0 mm 0.00 in/hr0.0 mm/hr 0.00 in0.0 mm
04:45 AM 37.9°F3.3°C 35.5°F1.9°C 91% Calm Calm -- 29.79 in1008.8 mb 0.00 in0.0 mm 0.00 in/hr0.0 mm/hr 0.00 in0.0 mm
04:30 AM 37.6°F3.1°C 34.9°F1.6°C 90% Calm Calm -- 29.79 in1008.8 mb 0.00 in0.0 mm 0.00 in/hr0.0 mm/hr 0.00 in0.0 mm
04:15 AM 38.1°F3.4°C 34.9°F1.6°C 88% Calm Calm -- 29.79 in1008.8 mb 0.00 in0.0 mm 0.00 in/hr0.0 mm/hr 0.00 in0.0 mm
04:00 AM 39.1°F3.9°C 35.6°F2.0°C 87% Calm Calm -- 29.79 in1008.8 mb 0.00 in0.0 mm 0.00 in/hr0.0 mm/hr 0.00 in0.0 mm
03:45 AM 38.7°F3.7°C 35.8°F2.1°C 89% Calm Calm -- 29.79 in1008.8 mb 0.00 in0.0 mm 0.00 in/hr0.0 mm/hr 0.00 in0.0 mm
03:30 AM 38.9°F3.8°C 35.6°F2.0°C 88% Calm Calm -- 29.79 in1008.8 mb 0.00 in0.0 mm 0.00 in/hr0.0 mm/hr 0.00 in0.0 mm
03:15 AM 38.5°F3.6°C 36.1°F2.3°C 91% Calm Calm -- 29.79 in1008.8 mb 0.00 in0.0 mm 0.00 in/hr0.0 mm/hr 0.00 in0.0 mm
03:00 AM 37.5°F3.1°C 35.1°F1.7°C 91% Calm Calm -- 29.80 in1009.1 mb 0.00 in0.0 mm 0.00 in/hr0.0 mm/hr 0.00 in0.0 mm
02:45 AM 37.6°F3.1°C 34.9°F1.6°C 90% Calm Calm -- 29.80 in1009.1 mb 0.00 in0.0 mm 0.00 in/hr0.0 mm/hr 0.00 in0.0 mm
02:30 AM 37.2°F2.9°C 34.8°F1.6°C 91% Calm Calm -- 29.80 in1009.1 mb 0.00 in0.0 mm 0.00 in/hr0.0 mm/hr 0.00 in0.0 mm
02:15 AM 37.5°F3.1°C 34.8°F1.6°C 90% Calm Calm -- 29.80 in1009.1 mb 0.00 in0.0 mm 0.00 in/hr0.0 mm/hr 0.00 in0.0 mm
02:00 AM 36.8°F2.7°C 34.1°F1.2°C 90% Calm Calm -- 29.81 in1009.5 mb 0.00 in0.0 mm 0.00 in/hr0.0 mm/hr 0.00 in0.0 mm
01:45 AM 36.6°F2.6°C 34.3°F1.3°C 91% Calm Calm -- 29.81 in1009.5 mb 0.00 in0.0 mm 0.00 in/hr0.0 mm/hr 0.00 in0.0 mm
01:30 AM 36.5°F2.5°C 33.8°F1.0°C 90% Calm Calm -- 29.81 in1009.5 mb 0.00 in0.0 mm 0.00 in/hr0.0 mm/hr 0.00 in0.0 mm
01:15 AM 36.5°F2.5°C 34.2°F1.2°C 91% Calm Calm -- 29.81 in1009.5 mb 0.00 in0.0 mm 0.00 in/hr0.0 mm/hr 0.00 in0.0 mm
01:00 AM 36.7°F2.6°C 34.1°F1.2°C 90% Calm Calm -- 29.80 in1009.1 mb 0.00 in0.0 mm 0.00 in/hr0.0 mm/hr 0.00 in0.0 mm
12:45 AM 36.4°F2.4°C 33.7°F0.9°C 90% Calm Calm -- 29.80 in1009.1 mb 0.00 in0.0 mm 0.00 in/hr0.0 mm/hr 0.00 in0.0 mm
12:30 AM 36.9°F2.7°C 34.2°F1.2°C 90% Calm Calm -- 29.80 in1009.1 mb 0.00 in0.0 mm 0.00 in/hr0.0 mm/hr 0.00 in0.0 mm
12:15 AM 37.4°F3.0°C 34.1°F1.2°C 88% Calm Calm -- 29.80 in1009.1 mb 0.00 in0.0 mm 0.00 in/hr0.0 mm/hr 0.00 in0.0 mm
12:00 AM 38.1°F3.4°C 35.1°F1.7°C 89% Calm Calm -- 29.80 in1009.1 mb 0.00 in0.0 mm 0.00 in/hr0.0 mm/hr 0.00 in0.0 mm